• Join FlightAware (Why Join?)
  • Login
  • US Flag 
06:34AM EDT


 

Airport Tracker/Info


-or-


 

Live Flight TrackerFlight Track Log ✈ EJM826 ✈ 28-Dec-2013 ✈ KAUS - KASE

Flight Track Log - Related Links

Times and Time Zones

All times are in EST time to prevent confusion due to time zone crossing. See the EJM826 flight status page for this flight to view local times or setup timezone preferences in your user account.

Time Position Orientation Groundspeed Altitude Reporting Facility
EST Latitude Longitude Course Direction KTS MPH feet Rate Location/Type
11:11AM 30.1153 -97.7181 323° Northwest 220 253 4,700  Level Fort Worth Center
11:12AM 30.1619 -97.7867 308° West 260 299 7,100 2,400 Climbing Houston Center
11:13AM 30.2311 -97.8356 329° Northwest 283 326 9,600 2,460 Climbing Houston Center
11:14AM 30.3058 -97.9014 323° Northwest 296 341 12,300 2,400 Climbing Houston Center
11:15AM 30.2869 -97.7518 323° Northwest  Level Estimated
11:15AM 30.3683 -97.9564 323° Northwest 309 356 14,700  Level Houston Center
11:16AM 30.3793 -97.8338 323° Northwest  Level Estimated
11:16AM 30.4525 -98.0292 323° Northwest 318 366 17,300  Level Houston Center
11:17AM 30.5261 -98.0942 323° Northwest 326 375 18,900 1,680 Climbing Houston Center
11:18AM 30.6039 -98.1625 323° Northwest 341 392 20,800 1,800 Climbing Houston Center
11:19AM 30.6844 -98.2331 323° Northwest 355 409 22,700 1,740 Climbing Houston Center
11:20AM 30.7689 -98.3033 324° Northwest 366 421 24,500 1,860 Climbing Houston Center
11:21AM 30.8519 -98.3769 323° Northwest 371 427 26,600 1,560 Climbing Houston Center
11:22AM 30.9336 -98.4550 321° Northwest 374 430 27,800 1,140 Climbing Houston Center
11:23AM 31.0208 -98.5344 322° Northwest 389 448 29,000 1,200 Climbing Houston Center
11:24AM 31.1286 -98.6286 323° Northwest 406 467 30,400 1,200 Climbing Houston Center
11:25AM 31.2225 -98.7133 322° Northwest 416 479 31,600 1,080 Climbing Houston Center
11:26AM 31.3183 -98.7989 323° Northwest 426 490 32,700 1,140 Climbing Houston Center
11:27AM 31.4144 -98.8856 322° Northwest 431 496 34,000 1,320 Climbing Houston Center
11:28AM 31.5083 -98.9700 323° Northwest 423 487 35,500 1,080 Climbing Houston Center
11:29AM 31.5994 -99.0536 322° Northwest 414 476 36,300 780 Climbing Houston Center
11:30AM 31.6986 -99.1444 322° Northwest 410 472 37,200 720 Climbing Fort Worth Center
11:31AM 31.7906 -99.2269 323° Northwest 415 478 37,900 540 Climbing Fort Worth Center
11:32AM 31.8808 -99.3100 322° Northwest 411 473 38,400 660 Climbing Fort Worth Center
11:33AM 31.9897 -99.4075 323° Northwest 408 470 39,300 660 Climbing Fort Worth Center
11:34AM 32.0783 -99.4906 322° Northwest 406 467 39,800 300 Climbing Fort Worth Center
11:36AM 32.1672 -99.5719 322° Northwest 405 466 40,000 60 Climbing Fort Worth Center
11:37AM 32.2508 -99.6672 316° Northwest 413 475 40,000  Level Fort Worth Center
11:38AM 32.3386 -99.7650 317° Northwest 423 487 40,000  Level Fort Worth Center
11:39AM 32.4233 -99.8647 315° West 431 496 40,000  Level Fort Worth Center
11:40AM 32.5111 -99.9667 316° Northwest 435 501 40,000  Level Fort Worth Center
11:41AM 32.6036 -100.0703 317° Northwest 442 509 40,000  Level Fort Worth Center
11:42AM 32.6942 -100.1742 316° Northwest 445 512 40,000  Level Fort Worth Center
11:43AM 32.8019 -100.2989 316° Northwest 447 514 40,000  Level Fort Worth Center
11:44AM 32.8928 -100.4036 316° Northwest 451 519 40,000  Level Fort Worth Center
11:45AM 32.9825 -100.5086 316° Northwest 451 519 40,000  Level Fort Worth Center
11:46AM 33.0706 -100.6139 315° West 448 516 40,000  Level Fort Worth Center
11:47AM 33.1614 -100.7189 316° Northwest 454 522 40,000  Level Fort Worth Center
11:48AM 33.2508 -100.8239 316° Northwest 449 517 40,000  Level Fort Worth Center
11:49AM 33.3575 -100.9528 315° West 452 520 40,000  Level Fort Worth Center
11:50AM 33.4475 -101.0583 316° Northwest 454 522 40,000  Level Fort Worth Center
11:51AM 33.5367 -101.1639 315° West 451 519 40,000  Level Fort Worth Center
11:52AM 33.6258 -101.2711 315° West 453 521 40,000  Level Fort Worth Center
11:53AM 33.7219 -101.3822 316° Northwest 454 522 40,000  Level Fort Worth Center
11:54AM 33.8158 -101.4953 315° West 453 521 40,000  Level Fort Worth Center
11:55AM 33.9111 -101.6108 315° West 454 522 40,000  Level Fort Worth Center
11:56AM 33.9878 -101.7022 315° West 455 524 40,000  Level Fort Worth Center
11:57AM 34.0986 -101.8375 315° West 457 526 40,000  Level Fort Worth Center
11:58AM 34.1339 -101.8761 318° Northwest 456 525 40,000  Level Albuquerque Center
11:59AM 34.2406 -102.0075 314° West 457 526 40,000  Level Albuquerque Center
12:00PM 34.3297 -102.1172 315° West 457 526 40,000  Level Albuquerque Center
12:01PM 34.4169 -102.2244 315° West 450 518 40,000  Level Albuquerque Center
12:02PM 34.5036 -102.3311 315° West 445 512 40,000  Level Albuquerque Center
12:03PM 34.5892 -102.4369 314° West 440 506 40,000  Level Albuquerque Center
12:04PM 34.6753 -102.5419 315° West 439 505 40,000  Level Albuquerque Center
12:05PM 34.7600 -102.6475 314° West 436 502 40,000  Level Albuquerque Center
12:06PM 34.8614 -102.7736 314° West 429 494 40,000  Level Albuquerque Center
12:07PM 34.9458 -102.8792 314° West 431 496 40,000  Level Albuquerque Center
12:08PM 35.0300 -102.9847 314° West 431 496 40,000  Level Albuquerque Center
12:09PM 35.1153 -103.0897 315° West 431 496 40,000  Level Albuquerque Center
12:10PM 35.1997 -103.1961 314° West 432 497 40,000  Level Albuquerque Center
12:11PM 35.2836 -103.3033 314° West 433 498 40,000  Level Albuquerque Center
12:12PM 35.3683 -103.4106 314° West 434 499 40,000  Level Albuquerque Center
12:13PM 35.4667 -103.5367 314° West 436 502 40,000  Level Albuquerque Center
12:14PM 35.5517 -103.6447 314° West 438 504 40,000  Level Albuquerque Center
12:15PM 35.6369 -103.7531 314° West 439 505 40,000  Level Albuquerque Center
12:16PM 35.7217 -103.8631 314° West 440 506 40,000  Level Albuquerque Center
12:17PM 35.8067 -103.9742 313° West 442 509 40,000  Level Albuquerque Center
12:19PM 35.8911 -104.0833 314° West 440 506 40,000  Level Albuquerque Center
12:20PM 35.9892 -104.2100 314° West 436 502 40,000  Level Albuquerque Center
12:21PM 36.0725 -104.3181 314° West 433 498 40,000  Level Albuquerque Center
12:22PM 36.1558 -104.4256 314° West 431 496 40,000  Level Albuquerque Center
12:23PM 36.2389 -104.5353 313° West 432 497 40,000  Level Albuquerque Center
12:24PM 36.3219 -104.6450 313° West 433 498 40,000  Level Albuquerque Center
12:25PM 36.4053 -104.7542 314° West 432 497 40,000  Level Albuquerque Center
12:26PM 36.5047 -104.8786 315° West 434 499 40,000  Level Albuquerque Center
12:27PM 36.6092 -104.9567 329° Northwest 436 502 40,000  Level Albuquerque Center
12:28PM 36.7192 -105.0378 329° Northwest 434 499 40,000  Level Albuquerque Center
12:29PM 36.8183 -105.1128 329° Northwest 433 498 40,000  Level Albuquerque Center
12:30PM 36.9189 -105.1872 329° Northwest 435 501 40,000  Level Albuquerque Center
12:31PM 37.0347 -105.2747 329° Northwest 435 501 40,000 -1,080 Level Albuquerque Center
12:34PM 37.4022 -105.5556 328° Northwest 429 494 35,200 -1,320 Descending Denver Center
12:35PM 37.4972 -105.6286 329° Northwest 422 486 34,000 -1,080 Descending Denver Center
12:37PM 37.6131 -105.7169 329° Northwest 437 503 33,000 -540 Descending Denver Center
12:38PM 37.7175 -105.7969 329° Northwest 451 519 33,000 -960 Level Denver Center
12:39PM 37.8394 -105.8917 328° Northwest 458 527 31,100 -1,800 Descending Denver Center
12:40PM 37.8470 -105.8906 328° Northwest  Level FlightAware Approximate
12:40PM 37.9447 -105.9717 329° Northwest 460 529 29,400  Level Denver Center
12:41PM 37.9454 -105.9693 328° Northwest  Level FlightAware Approximate
12:41PM 38.0631 -106.0653 328° Northwest 451 519 27,300  Level Denver Center
12:42PM 38.1653 -106.1425 329° Northwest 446 513 27,000 -1,200 Descending Denver Center
12:43PM 38.2767 -106.2322 328° Northwest 438 504 24,800 -2,040 Descending Denver Center
12:44PM 38.3822 -106.3164 328° Northwest 446 513 22,900 -1,860 Descending Denver Center
12:45PM 38.4942 -106.3853 334° Northwest 446 513 21,000 -1,440 Descending Denver Center
12:46PM 38.6033 -106.4417 338° Northwest 437 503 20,000 -780 Descending Denver Center
12:47PM 38.7050 -106.4961 337° Northwest 401 461 19,500 -1,020 Descending Denver Center
12:48PM 38.8256 -106.5600 338° Northwest 392 451 17,900 -1,260 Descending Denver Center
12:49PM 38.9222 -106.6122 337° Northwest 382 440 16,900 -540 Descending Denver Center
12:50PM 38.9997 -106.6542 337° Northwest 323 372 16,800 -60 Descending Denver Center
12:51PM 39.0650 -106.6881 338° Northwest 277 319 16,800 -480 Level Denver Center
12:52PM 39.1431 -106.7128 346° North 262 302 15,900 -480 Descending Denver Center
12:53PM 39.2072 -106.7181 356° North 254 292 15,900  Level Denver Center
12:54PM 39.2806 -106.7253 356° North 261 300 15,900  Level Denver Center
12:55PM 39.3689 -106.7342 356° North 266 306 15,900 120 Level Denver Center
12:56PM 39.4456 -106.7408 356° North 266 306 16,200 120 Climbing Denver Center
12:57PM 39.5114 -106.7897 330° Northwest 242 278 16,200  Level Denver Center
12:58PM 39.5747 -106.8464 325° Northwest 244 281 16,200 -60 Level Denver Center
01:00PM 39.6358 -106.9092 322° Northwest 253 291 16,100 -60 Descending Denver Center
01:01PM 39.6417 -106.9931 275° West 247 284 16,100  Level Denver Center
01:02PM 39.5861 -107.0719 228° Southwest 260 299 16,100  Level Denver Center
01:03PM 39.5236 -107.0931 195° South 285 328 16,100 -60 Level Denver Center
01:04PM 39.4728 -107.0211 132° Southeast 282 325 16,000 -1,020 Descending Denver Center
01:05PM 39.4236 -106.9708 142° Southeast 231 266 14,000 -2,160 Descending Denver Center
01:06PM 39.3683 -106.9397 156° South 206 237 11,600 -1,920 Descending Denver Center
01:07PM 39.3208 -106.9161 159° South 194 223 10,100 -1,260 Descending Denver Center
01:08PM 39.2789 -106.8972 161° South 178 205 9,000 -1,080 Descending Denver Center